createdAt,value
2018-12-27T00:02:14.845Z,27.87
2018-12-27T00:04:46.574Z,25.30
2018-12-27T00:07:18.391Z,26.50
2018-12-27T00:09:50.017Z,26.07
2018-12-27T00:12:21.651Z,27.73
2018-12-27T00:14:53.280Z,26.80
2018-12-27T00:17:24.760Z,23.70
2018-12-27T00:19:56.393Z,24.10
2018-12-27T00:22:28.134Z,21.52
2018-12-27T00:24:59.590Z,23.60
2018-12-27T00:27:31.065Z,21.50
2018-12-27T00:30:02.607Z,22.45
2018-12-27T00:32:35.189Z,19.07
2018-12-27T00:35:07.208Z,22.77
2018-12-27T00:37:38.807Z,20.82
2018-12-27T00:40:10.363Z,23.92
2018-12-27T00:42:41.971Z,28.10
2018-12-27T00:45:13.724Z,38.60
2018-12-27T00:47:45.312Z,37.25
2018-12-27T00:50:17.072Z,28.90
2018-12-27T00:52:48.799Z,30.17
2018-12-27T00:55:20.443Z,32.40
2018-12-27T00:57:52.318Z,36.25
2018-12-27T01:00:25.112Z,33.63
2018-12-27T01:02:56.708Z,37.42
2018-12-27T01:05:28.097Z,47.78
2018-12-27T01:07:59.483Z,47.25
2018-12-27T01:10:30.933Z,41.53
2018-12-27T01:13:02.298Z,69.47
2018-12-27T01:15:33.722Z,80.12
2018-12-27T01:18:05.210Z,78.97
2018-12-27T01:20:36.563Z,86.47
2018-12-27T01:23:08.312Z,98.03
2018-12-27T01:25:39.647Z,104.38
2018-12-27T01:28:11.303Z,94.00
2018-12-27T01:30:43.088Z,100.87
2018-12-27T01:33:18.675Z,76.35
2018-12-27T01:35:47.408Z,59.33
2018-12-27T01:38:18.695Z,55.98
2018-12-27T01:40:50.357Z,54.77
2018-12-27T01:43:21.876Z,44.48
2018-12-27T01:45:53.491Z,44.23
2018-12-27T01:48:24.912Z,42.13
2018-12-27T01:50:56.450Z,46.83
2018-12-27T01:53:27.923Z,44.53
2018-12-27T01:55:59.545Z,43.63
2018-12-27T01:58:31.170Z,42.93
2018-12-27T02:01:02.626Z,40.43
2018-12-27T02:03:34.304Z,42.75
2018-12-27T02:06:05.736Z,40.30
2018-12-27T02:08:37.194Z,39.63
2018-12-27T02:11:08.718Z,38.15
2018-12-27T02:13:40.048Z,44.18
2018-12-27T02:16:11.746Z,38.30
2018-12-27T02:18:43.205Z,35.65
2018-12-27T02:21:15.018Z,36.20
2018-12-27T02:23:46.590Z,37.33
2018-12-27T02:26:17.944Z,38.90
2018-12-27T02:28:49.751Z,44.60
2018-12-27T02:31:21.247Z,51.95
2018-12-27T02:33:52.831Z,92.30
2018-12-27T02:36:24.321Z,69.25
2018-12-27T02:38:55.723Z,55.10
2018-12-27T02:41:27.630Z,49.73
2018-12-27T02:43:59.216Z,45.17
2018-12-27T02:46:30.680Z,45.75
2018-12-27T02:49:01.987Z,64.62
2018-12-27T02:51:33.780Z,59.85
2018-12-27T02:54:05.160Z,66.82
2018-12-27T02:56:36.610Z,73.07
2018-12-27T02:59:08.064Z,71.67
2018-12-27T03:01:39.677Z,103.02
2018-12-27T03:04:11.179Z,68.35
2018-12-27T03:06:42.602Z,55.73
2018-12-27T03:09:13.854Z,47.30
2018-12-27T03:11:45.179Z,39.88
2018-12-27T03:14:16.455Z,35.10
2018-12-27T03:16:47.857Z,38.23
2018-12-27T03:19:19.156Z,36.03
2018-12-27T03:21:50.522Z,32.88
2018-12-27T03:24:21.784Z,32.83
2018-12-27T03:26:53.077Z,37.35
2018-12-27T03:29:24.499Z,33.65
2018-12-27T03:31:56.085Z,82.88
2018-12-27T03:34:27.349Z,71.97
2018-12-27T03:36:58.769Z,57.58
2018-12-27T03:39:30.368Z,72.95
2018-12-27T03:42:02.142Z,80.62
2018-12-27T03:44:33.506Z,59.05
2018-12-27T03:47:05.151Z,44.42
2018-12-27T03:49:36.770Z,39.92
2018-12-27T03:52:08.214Z,35.48
2018-12-27T03:54:39.674Z,38.35
2018-12-27T03:57:11.175Z,47.40
2018-12-27T03:59:42.518Z,40.95
2018-12-27T04:02:13.864Z,48.75
2018-12-27T04:04:45.144Z,57.78
2018-12-27T04:07:16.658Z,55.52
2018-12-27T04:09:48.219Z,52.23
2018-12-27T04:12:19.550Z,56.05
2018-12-27T04:14:50.913Z,47.13
2018-12-27T04:17:22.319Z,52.55
2018-12-27T04:19:54.059Z,47.60
2018-12-27T04:22:25.421Z,53.65
2018-12-27T04:24:56.818Z,55.85
2018-12-27T04:27:28.245Z,49.75
2018-12-27T04:30:00.726Z,59.55
2018-12-27T04:32:32.916Z,63.35
2018-12-27T04:35:04.556Z,56.20
2018-12-27T04:37:35.850Z,58.68
2018-12-27T04:40:07.527Z,53.90
2018-12-27T04:42:39.477Z,51.33
2018-12-27T04:45:10.908Z,59.38
2018-12-27T04:47:42.297Z,48.30
2018-12-27T04:50:13.953Z,53.00
2018-12-27T04:52:45.260Z,54.25
2018-12-27T04:55:16.552Z,51.15
2018-12-27T04:57:47.915Z,49.83
2018-12-27T05:00:19.391Z,57.27
2018-12-27T05:02:50.821Z,50.03
2018-12-27T05:05:22.268Z,57.80
2018-12-27T05:07:53.529Z,54.05
2018-12-27T05:10:24.780Z,58.20
2018-12-27T05:12:56.056Z,66.85
2018-12-27T05:15:27.383Z,61.92
2018-12-27T05:17:58.766Z,67.15
2018-12-27T05:20:29.964Z,62.70
2018-12-27T05:23:01.423Z,66.00
2018-12-27T05:25:32.994Z,70.47
2018-12-27T05:28:04.413Z,79.05
2018-12-27T05:30:35.881Z,98.75
2018-12-27T05:33:07.227Z,107.10
2018-12-27T05:35:38.988Z,120.65
2018-12-27T05:38:21.828Z,129.82
2018-12-27T05:40:53.278Z,100.05
2018-12-27T05:43:25.272Z,85.45
2018-12-27T05:45:56.709Z,88.97
2018-12-27T05:48:28.124Z,89.07
2018-12-27T05:50:59.844Z,86.53
2018-12-27T05:53:31.271Z,93.03
2018-12-27T05:56:02.486Z,98.92
2018-12-27T05:58:33.903Z,104.60
2018-12-27T06:01:05.486Z,106.58
2018-12-27T06:03:36.763Z,110.17
2018-12-27T06:06:08.210Z,108.55
2018-12-27T06:08:39.891Z,127.25
2018-12-27T06:11:11.166Z,132.25
2018-12-27T06:13:42.585Z,123.45
2018-12-27T06:16:13.818Z,105.83
2018-12-27T06:18:45.207Z,101.47
2018-12-27T06:21:16.693Z,102.17
2018-12-27T06:23:48.214Z,108.95
2018-12-27T06:26:19.553Z,102.85
2018-12-27T06:28:50.803Z,93.80
2018-12-27T06:31:22.120Z,100.02
2018-12-27T06:33:53.471Z,110.25
2018-12-27T06:36:24.910Z,102.95
2018-12-27T06:38:56.426Z,109.67
2018-12-27T06:41:28.207Z,106.22
2018-12-27T06:43:59.921Z,107.80
2018-12-27T06:46:31.299Z,117.80
2018-12-27T06:49:02.535Z,112.08
2018-12-27T06:51:34.041Z,114.72
2018-12-27T06:54:06.637Z,115.92
2018-12-27T06:56:37.936Z,105.78
2018-12-27T06:59:09.350Z,103.45
2018-12-27T07:01:40.938Z,87.15
2018-12-27T07:04:12.449Z,86.80
2018-12-27T07:06:43.850Z,96.63
2018-12-27T07:09:15.135Z,86.05
2018-12-27T07:11:46.279Z,79.90
2018-12-27T07:14:17.643Z,88.62
2018-12-27T07:16:48.903Z,79.05
2018-12-27T07:19:20.333Z,96.70
2018-12-27T07:21:52.008Z,82.15
2018-12-27T07:24:23.430Z,78.90
2018-12-27T07:26:54.923Z,105.85
2018-12-27T07:29:26.555Z,109.10
2018-12-27T07:31:57.851Z,78.00
2018-12-27T07:34:29.277Z,96.42
2018-12-27T07:37:00.855Z,87.80
2018-12-27T07:39:32.367Z,83.35
2018-12-27T07:42:03.632Z,118.00
2018-12-27T07:44:35.115Z,112.25
2018-12-27T07:47:06.341Z,95.05
2018-12-27T07:49:37.642Z,142.90
2018-12-27T07:52:08.823Z,84.15
2018-12-27T07:54:40.294Z,93.90
2018-12-27T07:57:11.349Z,99.80
2018-12-27T07:59:42.696Z,102.97
2018-12-27T08:02:14.431Z,98.20
2018-12-27T08:04:45.782Z,113.45
2018-12-27T08:07:17.599Z,106.75
2018-12-27T08:09:49.073Z,89.42
2018-12-27T08:12:20.372Z,104.10
2018-12-27T08:14:51.625Z,91.90
2018-12-27T08:17:22.790Z,89.42
2018-12-27T08:19:54.398Z,102.85
2018-12-27T08:22:25.548Z,87.53
2018-12-27T08:24:57.006Z,102.30
2018-12-27T08:27:29.312Z,97.12
2018-12-27T08:30:00.826Z,92.65
2018-12-27T08:32:32.197Z,92.65
2018-12-27T08:35:11.114Z,90.17
2018-12-27T08:37:36.906Z,87.97
2018-12-27T08:40:08.482Z,85.92
2018-12-27T08:42:39.588Z,80.92
2018-12-27T08:45:11.254Z,82.02
2018-12-27T08:47:42.534Z,75.08
2018-12-27T08:50:13.991Z,78.00
2018-12-27T08:52:45.331Z,82.88
2018-12-27T08:55:16.842Z,71.80
2018-12-27T08:57:48.390Z,74.35
2018-12-27T09:00:19.745Z,72.65
2018-12-27T09:02:51.084Z,72.42
2018-12-27T09:05:22.534Z,88.45
2018-12-27T09:07:53.911Z,90.75
2018-12-27T09:10:25.315Z,123.72
2018-12-27T09:12:56.548Z,109.63
2018-12-27T09:15:28.066Z,120.85
2018-12-27T09:17:59.578Z,140.90
2018-12-27T09:20:31.052Z,99.62
2018-12-27T09:23:02.762Z,104.40
2018-12-27T09:25:34.236Z,100.85
2018-12-27T09:28:05.811Z,101.95
2018-12-27T09:30:37.325Z,122.20
2018-12-27T09:33:08.680Z,104.38
2018-12-27T09:35:40.212Z,112.42
2018-12-27T09:38:11.688Z,103.47
2018-12-27T09:40:43.742Z,96.87
2018-12-27T09:43:15.134Z,94.75
2018-12-27T09:45:46.583Z,104.27
2018-12-27T09:48:18.003Z,100.62
2018-12-27T09:50:49.390Z,95.05
2018-12-27T09:53:21.908Z,91.10
2018-12-27T09:56:03.993Z,96.40
2018-12-27T09:58:35.454Z,103.87
2018-12-27T10:01:07.199Z,98.03
2018-12-27T10:03:38.565Z,94.83
2018-12-27T10:06:09.965Z,103.07
2018-12-27T10:11:21.397Z,98.03
2018-12-27T10:13:52.787Z,121.53
2018-12-27T10:16:24.260Z,117.03
2018-12-27T10:18:55.520Z,107.72
2018-12-27T10:21:26.906Z,104.23
2018-12-27T10:23:58.363Z,98.62
2018-12-27T10:26:29.766Z,94.85
2018-12-27T10:29:01.160Z,95.35
2018-12-27T10:31:32.740Z,103.90
2018-12-27T10:34:04.146Z,106.70
2018-12-27T10:36:35.803Z,133.30
2018-12-27T10:39:11.435Z,134.93
2018-12-27T10:41:42.861Z,112.70
2018-12-27T10:44:14.297Z,112.85
2018-12-27T10:46:45.725Z,121.28
2018-12-27T10:49:17.413Z,120.92
2018-12-27T10:51:48.723Z,104.63
2018-12-27T10:54:20.168Z,103.67
2018-12-27T10:56:51.878Z,95.47
2018-12-27T10:59:23.376Z,86.55
2018-12-27T11:01:54.637Z,78.10
2018-12-27T11:04:25.958Z,84.07
2018-12-27T11:06:57.988Z,87.10
2018-12-27T11:09:29.619Z,101.78
2018-12-27T11:12:01.204Z,91.12
2018-12-27T11:14:32.673Z,91.40
2018-12-27T11:17:04.318Z,96.53
2018-12-27T11:19:35.873Z,91.35
2018-12-27T11:22:07.205Z,93.07
2018-12-27T11:24:38.499Z,102.38
2018-12-27T11:27:09.831Z,87.20
2018-12-27T11:29:41.332Z,105.03
2018-12-27T11:32:12.764Z,101.15
2018-12-27T11:34:44.171Z,97.33
2018-12-27T11:37:15.592Z,112.85
2018-12-27T11:39:46.980Z,114.75
2018-12-27T11:42:29.966Z,83.33
2018-12-27T11:45:01.324Z,94.47
2018-12-27T11:47:32.819Z,113.25
2018-12-27T11:50:05.387Z,108.25
2018-12-27T11:52:36.882Z,87.88
2018-12-27T11:55:08.813Z,84.20
2018-12-27T11:57:40.322Z,89.97
2018-12-27T12:00:12.298Z,87.97
2018-12-27T12:02:43.662Z,100.67
2018-12-27T12:05:15.228Z,108.83
2018-12-27T12:07:46.835Z,94.10
2018-12-27T12:10:18.411Z,125.45
2018-12-27T12:12:49.632Z,100.45
2018-12-27T12:15:20.885Z,98.12
2018-12-27T12:18:04.015Z,96.47
2018-12-27T12:20:35.865Z,89.95
2018-12-27T12:23:08.367Z,77.72
2018-12-27T12:25:39.820Z,83.97
2018-12-27T12:28:11.141Z,87.57
2018-12-27T12:30:42.377Z,80.85
2018-12-27T12:33:13.844Z,82.17
2018-12-27T12:35:45.433Z,82.40
2018-12-27T12:38:16.777Z,91.22
2018-12-27T12:40:48.234Z,89.47
2018-12-27T12:43:19.657Z,90.42
2018-12-27T12:45:51.278Z,94.83
2018-12-27T12:48:23.631Z,103.30
2018-12-27T12:50:55.299Z,106.60
2018-12-27T12:53:26.691Z,103.32
2018-12-27T12:56:09.430Z,118.82
2018-12-27T12:58:40.793Z,98.35
2018-12-27T13:01:12.177Z,94.52
2018-12-27T13:03:43.625Z,98.22
2018-12-27T13:06:18.081Z,89.92
2018-12-27T13:08:49.246Z,95.53
2018-12-27T13:11:20.596Z,83.80
2018-12-27T13:13:51.754Z,107.52
2018-12-27T13:16:23.150Z,108.22
2018-12-27T13:18:54.328Z,96.40
2018-12-27T13:21:26.140Z,105.15
2018-12-27T13:23:57.768Z,101.07
2018-12-27T13:26:29.130Z,94.72
2018-12-27T13:29:00.411Z,100.27
2018-12-27T13:31:31.976Z,96.25
2018-12-27T13:34:03.501Z,99.83
2018-12-27T13:36:34.993Z,108.45
2018-12-27T13:39:08.633Z,114.75
2018-12-27T13:41:58.959Z,106.03
2018-12-27T13:44:41.440Z,108.95
2018-12-27T13:47:12.828Z,93.52
2018-12-27T13:49:43.993Z,100.50
2018-12-27T13:52:15.667Z,100.55
2018-12-27T13:54:47.018Z,102.70
2018-12-27T13:57:18.752Z,100.67
2018-12-27T13:59:50.100Z,100.62
2018-12-27T14:02:21.600Z,93.87
2018-12-27T14:04:53.094Z,93.22
2018-12-27T14:07:24.577Z,92.78
2018-12-27T14:09:55.868Z,98.03
2018-12-27T14:12:27.194Z,100.22
2018-12-27T14:14:58.822Z,93.97
2018-12-27T14:17:31.279Z,103.22
2018-12-27T14:20:02.710Z,118.05
2018-12-27T14:22:45.290Z,118.72
2018-12-27T14:25:17.092Z,115.40
2018-12-27T14:27:48.570Z,120.55
2018-12-27T14:30:20.591Z,104.60
2018-12-27T14:32:52.641Z,95.95
2018-12-27T14:35:26.264Z,107.40
2018-12-27T14:37:57.697Z,122.75
2018-12-27T14:40:29.932Z,134.85
2018-12-27T14:43:01.838Z,109.83
2018-12-27T14:45:33.391Z,89.15
2018-12-27T14:48:16.435Z,84.32
2018-12-27T14:50:47.966Z,131.67
2018-12-27T14:53:19.451Z,122.85
2018-12-27T14:55:51.289Z,125.92
2018-12-27T14:58:22.986Z,119.10
2018-12-27T15:00:54.522Z,119.55
2018-12-27T15:03:26.025Z,124.67
2018-12-27T15:05:57.742Z,121.30
2018-12-27T15:08:29.177Z,120.95
2018-12-27T15:11:00.454Z,141.12
2018-12-27T15:13:31.765Z,129.47
2018-12-27T15:16:03.181Z,151.82
2018-12-27T15:18:35.703Z,143.60
2018-12-27T15:21:07.213Z,127.27
2018-12-27T15:23:38.775Z,127.55
2018-12-27T15:26:10.133Z,116.93
2018-12-27T15:28:41.635Z,135.40
2018-12-27T15:31:13.098Z,111.05
2018-12-27T15:33:44.528Z,109.30
2018-12-27T15:36:16.152Z,111.80
2018-12-27T15:38:47.284Z,141.30
2018-12-27T15:41:30.574Z,136.65
2018-12-27T15:44:02.038Z,119.47
2018-12-27T15:46:33.692Z,133.47
2018-12-27T15:49:05.648Z,109.65
2018-12-27T15:51:38.006Z,111.85
2018-12-27T15:54:09.674Z,126.07
2018-12-27T15:56:41.170Z,108.10
2018-12-27T15:59:12.699Z,113.37
2018-12-27T16:01:44.251Z,111.35
2018-12-27T16:04:15.635Z,114.45
2018-12-27T16:06:47.300Z,110.65
2018-12-27T16:09:18.761Z,121.15
2018-12-27T16:11:50.287Z,113.22
2018-12-27T16:14:22.060Z,112.97
2018-12-27T16:16:53.723Z,114.85
2018-12-27T16:19:25.250Z,114.82
2018-12-27T16:21:56.570Z,126.00
2018-12-27T16:24:27.989Z,107.37
2018-12-27T16:26:59.410Z,214.17
2018-12-27T16:29:30.944Z,121.13
2018-12-27T16:32:03.434Z,100.02
2018-12-27T16:34:35.100Z,108.45
2018-12-27T16:37:09.107Z,150.87
2018-12-27T16:39:40.523Z,124.20
2018-12-27T16:42:12.080Z,145.17
2018-12-27T16:44:43.462Z,110.42
2018-12-27T16:47:14.775Z,137.35
2018-12-27T16:49:46.169Z,193.47
2018-12-27T16:52:17.523Z,195.32
2018-12-27T16:54:48.835Z,114.65
2018-12-27T16:57:20.341Z,88.12
2018-12-27T16:59:59.001Z,83.22
2018-12-27T17:02:30.762Z,121.53
2018-12-27T17:05:02.095Z,82.80
2018-12-27T17:07:33.360Z,75.45
2018-12-27T17:10:04.907Z,68.37
2018-12-27T17:12:36.484Z,83.72
2018-12-27T17:15:08.616Z,79.77
2018-12-27T17:17:40.176Z,84.30
2018-12-27T17:20:11.566Z,92.92
2018-12-27T17:22:43.009Z,96.67
2018-12-27T17:25:14.521Z,87.45
2018-12-27T17:27:45.926Z,86.32
2018-12-27T17:30:17.249Z,101.40
2018-12-27T17:32:48.694Z,101.75
2018-12-27T17:35:20.076Z,93.55
2018-12-27T17:37:51.559Z,82.60
2018-12-27T17:40:25.837Z,88.60
2018-12-27T17:42:58.252Z,82.57
2018-12-27T17:45:29.734Z,80.97
2018-12-27T17:48:01.322Z,81.28
2018-12-27T17:50:33.755Z,71.85
2018-12-27T17:53:05.603Z,88.37
2018-12-27T17:55:37.295Z,93.55
2018-12-27T17:58:09.078Z,101.95
2018-12-27T18:00:40.612Z,91.95
2018-12-27T18:03:12.205Z,74.65
2018-12-27T18:05:43.898Z,76.50
2018-12-27T18:08:15.173Z,72.97
2018-12-27T18:10:47.053Z,73.40
2018-12-27T18:13:30.104Z,80.28
2018-12-27T18:16:01.513Z,77.50
2018-12-27T18:18:33.028Z,85.60
2018-12-27T18:21:06.758Z,84.35
2018-12-27T18:23:39.759Z,76.62
2018-12-27T18:26:11.289Z,74.67
2018-12-27T18:28:43.869Z,87.25
2018-12-27T18:31:15.368Z,82.78
2018-12-27T18:34:06.108Z,74.27
2018-12-27T18:36:38.272Z,78.25
2018-12-27T18:39:09.974Z,77.27
2018-12-27T18:41:41.487Z,83.50
2018-12-27T18:44:13.025Z,84.17
2018-12-27T18:46:44.381Z,97.85
2018-12-27T18:49:20.662Z,83.78
2018-12-27T18:51:49.157Z,84.17
2018-12-27T18:54:21.138Z,92.70
2018-12-27T18:56:53.432Z,89.35
2018-12-27T18:59:25.285Z,89.70
2018-12-27T19:01:56.784Z,93.87
2018-12-27T19:04:28.474Z,86.75
2018-12-27T19:07:00.271Z,98.42
2018-12-27T19:09:31.870Z,102.53
2018-12-27T19:12:39.043Z,126.15
2018-12-27T19:15:14.161Z,117.15
2018-12-27T19:17:51.608Z,130.57
2018-12-27T19:20:23.003Z,153.32
2018-12-27T19:23:18.455Z,138.15
2018-12-27T19:25:49.858Z,121.62
2018-12-27T19:28:21.217Z,117.42
2018-12-27T19:30:52.857Z,124.97
2018-12-27T19:33:24.749Z,140.18
2018-12-27T19:35:56.075Z,159.93
2018-12-27T19:38:27.377Z,149.27
2018-12-27T19:40:59.032Z,138.03
2018-12-27T19:43:30.344Z,127.22
2018-12-27T19:46:01.925Z,126.10
2018-12-27T19:48:33.465Z,130.07
2018-12-27T19:51:05.049Z,123.95
2018-12-27T19:53:36.818Z,123.70
2018-12-27T19:56:08.411Z,125.15
2018-12-27T19:58:39.760Z,121.02
2018-12-27T20:01:11.258Z,116.08
2018-12-27T20:03:43.806Z,132.95
2018-12-27T20:06:15.433Z,134.55
2018-12-27T20:08:47.217Z,123.85
2018-12-27T20:11:18.681Z,112.47
2018-12-27T20:13:49.990Z,127.78
2018-12-27T20:16:21.458Z,128.82
2018-12-27T20:18:53.122Z,120.42
2018-12-27T20:21:24.428Z,111.08
2018-12-27T20:23:56.135Z,128.65
2018-12-27T20:26:27.411Z,122.10
2018-12-27T20:28:58.853Z,107.90
2018-12-27T20:31:30.227Z,114.15
2018-12-27T20:36:41.980Z,103.95
2018-12-27T20:39:13.528Z,104.30
2018-12-27T20:41:45.089Z,116.80
2018-12-27T20:44:16.648Z,118.62
2018-12-27T20:46:48.300Z,118.80
2018-12-27T20:49:20.298Z,110.92
2018-12-27T20:51:52.450Z,243.40
2018-12-27T20:54:24.515Z,173.28
2018-12-27T20:56:56.523Z,170.40
2018-12-27T20:59:28.329Z,229.47
2018-12-27T21:02:00.191Z,282.32
2018-12-27T21:04:31.679Z,247.98
2018-12-27T21:07:03.075Z,248.45
2018-12-27T21:09:34.388Z,247.65
2018-12-27T21:12:05.842Z,248.47
2018-12-27T21:14:37.155Z,283.98
2018-12-27T21:17:08.681Z,422.82
2018-12-27T21:19:40.031Z,332.55
2018-12-27T21:22:11.627Z,370.77
2018-12-27T21:24:42.978Z,399.12
2018-12-27T21:27:14.622Z,347.10
2018-12-27T21:29:45.821Z,348.15
2018-12-27T21:32:17.209Z,308.73
2018-12-27T21:34:48.637Z,347.93
2018-12-27T21:37:20.269Z,333.60
2018-12-27T21:39:51.669Z,327.57
2018-12-27T21:42:23.095Z,369.13
2018-12-27T21:44:54.545Z,387.90
2018-12-27T21:47:26.041Z,380.18
2018-12-27T21:49:57.473Z,360.55
2018-12-27T21:52:29.033Z,367.27
2018-12-27T21:55:00.614Z,392.07
2018-12-27T21:57:33.125Z,377.15
2018-12-27T22:00:04.785Z,353.58
2018-12-27T22:02:36.789Z,357.65
2018-12-27T22:05:08.421Z,361.77
2018-12-27T22:07:39.873Z,336.12
2018-12-27T22:10:11.238Z,323.98
2018-12-27T22:12:42.785Z,322.70
2018-12-27T22:15:14.325Z,281.23
2018-12-27T22:17:45.857Z,204.55
2018-12-27T22:20:17.267Z,199.85
2018-12-27T22:22:48.708Z,174.07
2018-12-27T22:25:20.239Z,164.40
2018-12-27T22:27:51.638Z,154.47
2018-12-27T22:30:22.895Z,170.30
2018-12-27T22:32:54.590Z,145.07
2018-12-27T22:35:25.975Z,159.72
2018-12-27T22:37:57.244Z,160.93
2018-12-27T22:40:28.597Z,191.80
2018-12-27T22:43:00.014Z,224.45
2018-12-27T22:45:31.791Z,239.95
2018-12-27T22:48:03.219Z,236.95
2018-12-27T22:50:34.776Z,258.32
2018-12-27T22:53:06.622Z,241.17
2018-12-27T22:55:37.946Z,246.13
2018-12-27T22:58:09.549Z,244.75
2018-12-27T23:00:42.012Z,255.75
2018-12-27T23:03:13.499Z,265.65
2018-12-27T23:05:45.064Z,259.60
2018-12-27T23:08:16.813Z,250.45
2018-12-27T23:10:48.216Z,202.97
2018-12-27T23:13:19.498Z,174.50
2018-12-27T23:15:52.171Z,165.47
2018-12-27T23:18:24.085Z,153.82
2018-12-27T23:20:55.481Z,168.45
2018-12-27T23:23:45.504Z,158.93
2018-12-27T23:26:17.139Z,177.43
2018-12-27T23:28:48.569Z,166.40
2018-12-27T23:31:20.071Z,165.37
2018-12-27T23:33:51.432Z,163.45
2018-12-27T23:36:22.831Z,149.68
2018-12-27T23:38:54.181Z,183.27
2018-12-27T23:41:25.662Z,164.37
2018-12-27T23:43:57.090Z,153.53
2018-12-27T23:46:28.559Z,179.13
2018-12-27T23:48:59.928Z,156.43
2018-12-27T23:51:31.758Z,150.87
2018-12-27T23:54:03.132Z,154.75
2018-12-27T23:56:34.683Z,180.65
2018-12-27T23:59:06.306Z,187.40
